Alcinopolis, Brazil
Current Conditions -  °F | °C
As of 6:00 PM on Saturday 20 Dec 2014 (Local Time) from SBCG Reporting Station
Broken Clouds Broken Clouds  
Wind Chill: 75°   Ceiling: 10000
Heat Index: 75°   Visibility: 6mi
Dew Point: 70°   Wind: 10mph
Humidity: 83%   Direction: 360°N
Pressure: 29.77"   Gusts: NA
Location:  18.32°S, 53.71°W
Report Text: SBCG 202100Z 36009KT 9999 FEW030 BKN100 24/21 Q1008
Loading
Personal Weather Stations






























Interactive Weather Map New forecast layout! Learn more

10-Day Weather Forecast

Advertisements
Track Severe Weather on mobile